Time;durP1;ratioP1;P1;durP2;ratioP2;P2;SDS_P1;SDS_P2;PMS_P1;PMS_P2;Temp;Humidity;BMP_temperature;BMP_pressure;BME280_temperature;BME280_humidity;BME280_pressure;Samples;Min_cycle;Max_cycle;Signal;HPM_P1;HPM_P2
2023/04/12 00:01:06;;;;;;;10.73;7.82;;;;;;;9.80;61.40;98344.25;5051615;28;20055;-84
2023/04/12 00:03:35;;;;;;;13.18;9.15;;;;;;;9.83;61.23;98358.31;5051323;28;20080;-84
2023/04/12 00:06:02;;;;;;;11.57;8.60;;;;;;;9.85;61.49;98354.34;5033304;28;20040;-84
2023/04/12 00:08:31;;;;;;;12.07;8.35;;;;;;;9.84;61.63;98350.75;5033487;28;20017;-84
2023/04/12 00:11:01;;;;;;;13.55;9.25;;;;;;;9.83;61.42;98341.56;5049844;28;20033;-84
2023/04/12 00:13:27;;;;;;;10.02;8.27;;;;;;;9.84;61.34;98345.16;5032181;28;20033;-84
2023/04/12 00:15:52;;;;;;;10.70;8.65;;;;;;;9.83;61.65;98346.31;5033368;28;20023;-83
2023/04/12 00:18:18;;;;;;;10.82;7.78;;;;;;;9.85;61.29;98348.78;5033335;28;20025;-84
2023/04/12 00:20:43;;;;;;;8.98;7.40;;;;;;;9.79;62.25;98337.03;5033496;28;20071;-83
2023/04/12 00:23:11;;;;;;;10.57;8.05;;;;;;;9.83;61.24;98338.78;5033310;28;20476;-84
2023/04/12 00:25:38;;;;;;;10.38;7.95;;;;;;;9.87;61.48;98333.25;5033152;28;20064;-85
2023/04/12 00:28:04;;;;;;;9.82;7.53;;;;;;;9.91;61.21;98341.72;5032784;28;20057;-85
2023/04/12 00:30:29;;;;;;;11.63;8.20;;;;;;;9.87;61.31;98336.06;5031902;28;20120;-85
2023/04/12 00:32:55;;;;;;;10.88;8.48;;;;;;;9.89;61.11;98332.91;5033961;28;20032;-85
2023/04/12 00:35:20;;;;;;;11.23;8.57;;;;;;;9.91;60.56;98328.59;5052957;28;20048;-84
2023/04/12 00:37:46;;;;;;;12.60;8.57;;;;;;;10.09;59.67;98345.81;5036659;28;20102;-84
2023/04/12 00:40:11;;;;;;;9.43;8.32;;;;;;;10.17;59.24;98340.41;5032056;28;20029;-85
2023/04/12 00:42:37;;;;;;;15.40;8.95;;;;;;;10.19;59.37;98332.47;5039693;28;20025;-84
2023/04/12 00:45:03;;;;;;;17.30;8.60;;;;;;;10.27;59.04;98334.28;5045686;28;20460;-84
2023/04/12 00:47:29;;;;;;;10.77;8.15;;;;;;;10.27;59.17;98339.06;5030404;28;20470;-84
2023/04/12 00:49:55;;;;;;;11.80;8.60;;;;;;;10.23;59.11;98334.19;5032270;28;20031;-84
2023/04/12 00:52:22;;;;;;;11.68;8.68;;;;;;;10.35;58.58;98324.09;5032276;28;20036;-84
2023/04/12 00:54:48;;;;;;;14.02;8.32;;;;;;;10.41;58.77;98333.88;5046237;28;20029;-84
2023/04/12 00:57:14;;;;;;;14.30;9.43;;;;;;;10.48;58.55;98330.44;5037292;28;20412;-84
2023/04/12 00:59:39;;;;;;;13.02;9.18;;;;;;;10.31;59.39;98331.56;5029987;28;20029;-84
2023/04/12 01:02:06;;;;;;;11.10;7.93;;;;;;;10.21;60.64;98325.34;5032384;28;20492;-84
2023/04/12 01:04:33;;;;;;;11.38;8.00;;;;;;;10.03;61.30;98310.13;5030536;28;20523;-84
2023/04/12 01:07:06;;;;;;;10.85;8.48;;;;;;;10.04;61.62;98323.72;5034023;28;20033;-84
2023/04/12 01:09:52;;;;;;;10.35;8.27;;;;;;;10.06;61.73;98318.59;5042890;28;20120;-84
2023/04/12 01:12:41;;;;;;;10.80;7.97;;;;;;;10.04;61.90;98320.13;5053533;28;20115;-84
2023/04/12 01:15:10;;;;;;;10.67;7.70;;;;;;;10.02;61.83;98311.31;5054452;28;20410;-85
2023/04/12 01:18:01;;;;;;;11.15;8.88;;;;;;;10.00;62.09;98313.63;5039941;28;20388;-84
2023/04/12 01:20:30;;;;;;;9.85;7.97;;;;;;;10.07;62.28;98319.41;5034480;28;20021;-84
2023/04/12 01:23:14;;;;;;;9.90;8.07;;;;;;;10.05;62.06;98310.59;5054615;28;20116;-84
2023/04/12 01:26:05;;;;;;;9.77;8.02;;;;;;;10.04;61.63;98303.38;5039869;28;20033;-84
2023/04/12 01:28:36;;;;;;;11.43;8.25;;;;;;;9.92;62.59;98296.69;5055317;28;20421;-84
2023/04/12 01:31:03;;;;;;;9.75;7.28;;;;;;;9.87;63.13;98291.34;5051960;28;20119;-84
2023/04/12 01:33:32;;;;;;;11.85;8.35;;;;;;;9.87;63.23;98294.16;5040576;28;20029;-84
2023/04/12 01:36:15;;;;;;;11.35;7.63;;;;;;;9.84;62.82;98286.50;5034992;28;20040;-85
2023/04/12 01:38:42;;;;;;;11.65;8.50;;;;;;;9.72;63.83;98281.00;5049339;28;20089;-84
2023/04/12 01:41:08;;;;;;;12.15;8.32;;;;;;;9.65;64.27;98273.25;5035310;28;20029;-84
2023/04/12 01:43:40;;;;;;;11.07;8.88;;;;;;;9.58;64.14;98275.81;5048421;28;20036;-84
2023/04/12 01:46:05;;;;;;;11.30;8.60;;;;;;;9.65;63.63;98278.81;5036344;28;20534;-84
2023/04/12 01:48:31;;;;;;;12.60;7.82;;;;;;;9.66;64.20;98277.66;5034898;28;20048;-84
2023/04/12 01:51:06;;;;;;;13.48;8.65;;;;;;;9.68;63.75;98280.91;5034955;28;20116;-85
2023/04/12 01:53:47;;;;;;;12.07;9.65;;;;;;;9.74;63.39;98281.44;5039956;28;20415;-85
2023/04/12 01:56:15;;;;;;;9.88;8.05;;;;;;;9.74;63.48;98278.66;5040509;28;20032;-84
2023/04/12 01:58:42;;;;;;;9.98;8.85;;;;;;;9.79;63.35;98282.00;5033869;28;20039;-84
2023/04/12 02:01:11;;;;;;;10.90;8.57;;;;;;;9.79;62.55;98286.78;5051819;28;20032;-85
2023/04/12 02:03:41;;;;;;;11.93;9.82;;;;;;;9.87;62.89;98285.78;5037032;28;20151;-84
2023/04/12 02:06:08;;;;;;;11.63;8.68;;;;;;;9.74;63.11;98289.81;5041850;28;20495;-85
2023/04/12 02:08:34;;;;;;;10.52;7.78;;;;;;;9.63;63.80;98279.16;5041756;28;20036;-85
2023/04/12 02:11:00;;;;;;;13.25;8.23;;;;;;;9.66;63.71;98281.28;5045496;28;20119;-85
2023/04/12 02:13:25;;;;;;;10.23;8.10;;;;;;;9.57;63.34;98263.03;5044147;28;20098;-85
2023/04/12 02:15:53;;;;;;;11.13;8.35;;;;;;;9.65;63.58;98288.03;5034840;28;20048;-85
2023/04/12 02:18:19;;;;;;;11.10;8.50;;;;;;;9.68;63.40;98272.50;5066442;28;20089;-85
2023/04/12 02:20:45;;;;;;;14.98;8.75;;;;;;;9.72;63.19;98276.25;5033645;28;20042;-85
2023/04/12 02:23:11;;;;;;;11.15;8.07;;;;;;;9.73;63.03;98288.19;5038631;28;20520;-85
2023/04/12 02:25:40;;;;;;;11.43;8.93;;;;;;;9.73;63.15;98280.66;5048308;28;20120;-85
2023/04/12 02:28:05;;;;;;;10.32;8.45;;;;;;;9.78;63.39;98279.56;5052020;28;20028;-87
2023/04/12 02:30:31;;;;;;;12.13;8.52;;;;;;;9.73;63.10;98277.84;5048459;28;20032;-85
2023/04/12 02:32:57;;;;;;;13.88;7.70;;;;;;;9.83;62.46;98284.88;5053052;28;21370;-85
2023/04/12 02:35:23;;;;;;;10.63;8.70;;;;;;;9.83;62.76;98288.50;5048029;28;20039;-84
2023/04/12 02:37:50;;;;;;;11.00;8.38;;;;;;;9.82;62.44;98277.69;5054912;28;20021;-84
2023/04/12 02:40:15;;;;;;;9.80;7.97;;;;;;;9.87;61.80;98282.97;5038352;28;20021;-84
2023/04/12 02:42:42;;;;;;;10.15;7.43;;;;;;;9.89;61.93;98275.06;5036973;28;20045;-84
2023/04/12 02:45:08;;;;;;;10.93;8.15;;;;;;;10.02;60.87;98273.00;5047003;28;20104;-85
2023/04/12 02:47:34;;;;;;;8.82;7.85;;;;;;;9.98;61.40;98267.31;5035753;28;20032;-85
2023/04/12 02:49:59;;;;;;;10.80;8.05;;;;;;;9.96;60.69;98269.66;5050456;28;20103;-85
2023/04/12 02:52:25;;;;;;;9.68;7.25;;;;;;;10.01;60.95;98271.38;5046512;28;20036;-84
2023/04/12 02:54:51;;;;;;;11.60;7.45;;;;;;;10.00;61.08;98268.94;5032455;28;20032;-85
2023/04/12 02:57:17;;;;;;;13.13;8.10;;;;;;;9.93;60.78;98258.38;5049634;28;20423;-84
2023/04/12 02:59:43;;;;;;;15.10;7.60;;;;;;;10.00;61.65;98271.72;5039038;28;20028;-84
2023/04/12 03:02:08;;;;;;;14.35;7.28;;;;;;;10.02;61.33;98266.59;5032865;28;20025;-84
2023/04/12 03:04:38;;;;;;;9.55;7.85;;;;;;;9.99;61.38;98265.34;5033338;28;20036;-84
2023/04/12 03:07:04;;;;;;;13.23;8.07;;;;;;;9.94;61.61;98263.63;5052777;28;20016;-85
2023/04/12 03:09:31;;;;;;;14.85;8.02;;;;;;;9.95;61.01;98253.25;5034193;28;20029;-85
2023/04/12 03:11:56;;;;;;;10.13;7.70;;;;;;;9.97;61.29;98264.91;5036468;28;20035;-84
2023/04/12 03:14:22;;;;;;;11.07;8.65;;;;;;;9.99;61.15;98259.75;5033996;28;20029;-85
2023/04/12 03:16:50;;;;;;;8.65;6.57;;;;;;;9.95;60.77;98256.03;5032513;28;20021;-85
2023/04/12 03:19:15;;;;;;;8.43;7.50;;;;;;;10.07;61.29;98266.31;5040395;28;20027;-85
2023/04/12 03:21:41;;;;;;;11.35;7.90;;;;;;;10.13;60.53;98264.06;5026782;28;20026;-85
2023/04/12 03:24:07;;;;;;;9.00;7.57;;;;;;;10.04;60.97;98253.09;5032061;28;20484;-86
2023/04/12 03:26:33;;;;;;;11.95;8.57;;;;;;;10.09;60.36;98261.19;5069838;28;20479;-86
2023/04/12 03:29:00;;;;;;;15.73;8.57;;;;;;;10.14;60.20;98262.91;5051605;28;20024;-86
2023/04/12 03:31:26;;;;;;;14.70;10.23;;;;;;;10.11;60.43;98273.63;5041211;28;20033;-85
2023/04/12 03:33:52;;;;;;;21.05;8.63;;;;;;;10.01;60.42;98259.38;5058217;28;20546;-85
2023/04/12 03:36:21;;;;;;;11.23;9.10;;;;;;;10.03;60.51;98268.22;5037454;28;20052;-85
2023/04/12 03:38:47;;;;;;;11.40;8.45;;;;;;;10.08;60.14;98279.94;5032510;28;20032;-85
2023/04/12 03:41:12;;;;;;;13.80;7.97;;;;;;;10.03;61.13;98285.00;5042022;28;20039;-85
2023/04/12 03:43:39;;;;;;;11.48;8.43;;;;;;;9.97;61.07;98276.88;5033114;28;20028;-84
2023/04/12 03:46:05;;;;;;;12.65;8.55;;;;;;;9.94;61.06;98283.19;5042605;28;20038;-85
2023/04/12 03:48:31;;;;;;;11.32;8.70;;;;;;;9.85;60.71;98267.78;5053688;28;20032;-85
2023/04/12 03:50:58;;;;;;;16.40;9.52;;;;;;;9.91;61.52;98283.09;5038078;28;20037;-85
2023/04/12 03:53:29;;;;;;;12.07;8.52;;;;;;;9.82;61.93;98274.88;5038037;28;20458;-85
2023/04/12 03:55:55;;;;;;;12.20;9.02;;;;;;;9.91;61.90;98286.69;5042337;28;20440;-84
2023/04/12 03:58:20;;;;;;;14.13;8.32;;;;;;;9.73;61.90;98274.25;5053503;28;20032;-85
2023/04/12 04:00:47;;;;;;;16.17;9.98;;;;;;;9.82;62.13;98291.63;5056180;28;20510;-85
2023/04/12 04:03:13;;;;;;;15.70;10.23;;;;;;;9.78;62.24;98299.91;5034728;28;20115;-85
2023/04/12 04:05:39;;;;;;;14.13;10.45;;;;;;;9.75;63.17;98308.19;5035822;28;20483;-85
2023/04/12 04:08:06;;;;;;;21.02;11.50;;;;;;;9.67;63.14;98296.03;5039935;28;20039;-85
2023/04/12 04:10:32;;;;;;;20.98;13.88;;;;;;;9.76;63.04;98301.44;5033012;28;20045;-85
2023/04/12 04:12:57;;;;;;;18.63;12.82;;;;;;;9.71;62.61;98301.72;5031790;28;20025;-85
2023/04/12 04:15:26;;;;;;;19.23;10.98;;;;;;;9.76;62.76;98309.81;5025759;28;20411;-86
2023/04/12 04:17:52;;;;;;;14.70;11.02;;;;;;;9.80;62.92;98310.75;5053424;28;20032;-85
2023/04/12 04:20:18;;;;;;;17.48;11.35;;;;;;;9.78;63.01;98302.72;5048338;28;20029;-85
2023/04/12 04:22:47;;;;;;;20.08;10.57;;;;;;;9.78;62.95;98310.28;5049835;28;20488;-85
2023/04/12 04:25:14;;;;;;;14.77;11.68;;;;;;;9.84;63.51;98317.22;5029331;28;20025;-85
2023/04/12 04:27:43;;;;;;;15.75;11.50;;;;;;;9.81;63.67;98310.38;5051697;28;20028;-85
2023/04/12 04:30:10;;;;;;;16.75;10.77;;;;;;;9.82;63.07;98303.59;5039483;28;20037;-85
2023/04/12 04:32:36;;;;;;;15.23;10.77;;;;;;;9.93;62.78;98311.47;5045178;28;20024;-85
2023/04/12 04:35:02;;;;;;;17.52;11.07;;;;;;;10.00;62.76;98308.03;5035866;28;20140;-85
2023/04/12 04:37:29;;;;;;;15.77;10.90;;;;;;;9.97;63.50;98315.97;5046826;28;20488;-85
2023/04/12 04:39:55;;;;;;;14.10;9.65;;;;;;;10.03;63.24;98321.31;5035456;28;20029;-85
2023/04/12 04:42:21;;;;;;;17.38;11.43;;;;;;;10.08;63.08;98321.84;5035999;28;20040;-85
2023/04/12 04:44:50;;;;;;;15.48;10.50;;;;;;;10.07;62.71;98317.41;5049522;28;20427;-85
2023/04/12 04:47:16;;;;;;;13.52;10.07;;;;;;;10.18;63.30;98333.63;5070731;28;20028;-84
2023/04/12 04:49:43;;;;;;;22.70;11.32;;;;;;;10.15;62.80;98332.41;5048549;28;20078;-85
2023/04/12 04:52:09;;;;;;;17.73;10.77;;;;;;;10.22;62.78;98337.34;5036792;28;20516;-85
2023/04/12 04:54:34;;;;;;;15.63;11.32;;;;;;;10.21;62.87;98332.94;5050176;28;20024;-85
2023/04/12 04:57:00;;;;;;;16.27;11.10;;;;;;;10.33;61.92;98337.63;5044646;28;20056;-84
2023/04/12 04:59:26;;;;;;;28.65;11.73;;;;;;;10.34;62.31;98339.22;5050510;28;20237;-85
2023/04/12 05:01:52;;;;;;;16.83;12.10;;;;;;;10.33;62.64;98332.03;5048579;28;20036;-84
2023/04/12 05:04:17;;;;;;;19.25;11.57;;;;;;;10.30;62.16;98327.97;5027903;28;20076;-85
2023/04/12 05:06:44;;;;;;;20.30;11.18;;;;;;;10.38;62.68;98340.94;5026320;28;20033;-85
2023/04/12 05:09:10;;;;;;;16.67;11.40;;;;;;;10.44;62.65;98341.53;5039249;28;20491;-85
2023/04/12 05:11:36;;;;;;;20.80;12.07;;;;;;;10.36;62.56;98317.31;5042938;28;20090;-85
2023/04/12 05:14:01;;;;;;;15.57;11.13;;;;;;;10.39;62.61;98317.41;5046793;28;20178;-85
2023/04/12 05:16:27;;;;;;;18.08;13.15;;;;;;;10.70;62.00;98348.53;5036447;28;20112;-85
2023/04/12 05:18:52;;;;;;;23.55;13.45;;;;;;;10.79;61.79;98351.13;5034107;28;20040;-86
2023/04/12 05:21:18;;;;;;;26.88;14.57;;;;;;;10.76;61.51;98330.31;5031010;28;20048;-86
2023/04/12 05:23:45;;;;;;;20.10;13.88;;;;;;;10.89;61.36;98344.97;5052411;28;20515;-85
2023/04/12 05:26:11;;;;;;;20.13;14.57;;;;;;;10.91;61.34;98348.19;5036597;28;20113;-86
2023/04/12 05:28:36;;;;;;;16.98;13.13;;;;;;;10.90;61.85;98354.19;5033615;28;20504;-85
2023/04/12 05:31:02;;;;;;;23.95;14.50;;;;;;;10.93;61.53;98356.25;5033654;28;20518;-86
2023/04/12 05:33:28;;;;;;;20.45;16.17;;;;;;;10.98;61.92;98355.97;5026681;28;20021;-85
2023/04/12 05:35:53;;;;;;;25.52;15.70;;;;;;;10.95;62.18;98362.28;5034690;28;20099;-85
2023/04/12 05:38:19;;;;;;;17.65;13.25;;;;;;;10.98;62.17;98355.16;5045010;28;20029;-85
2023/04/12 05:40:44;;;;;;;77.40;19.02;;;;;;;11.03;62.75;98364.06;5021295;28;20025;-85
2023/04/12 05:43:13;;;;;;;23.23;15.10;;;;;;;11.04;62.28;98354.50;5032374;28;20025;-85
2023/04/12 05:45:40;;;;;;;26.50;15.80;;;;;;;11.17;62.39;98366.38;5034278;28;20116;-84
2023/04/12 05:48:05;;;;;;;34.45;15.93;;;;;;;11.19;62.21;98366.00;5054506;28;20059;-85
2023/04/12 05:50:31;;;;;;;23.58;16.25;;;;;;;11.26;62.29;98354.97;5051872;28;20464;-85
2023/04/12 05:52:56;;;;;;;23.65;16.70;;;;;;;11.35;62.00;98358.38;5034724;28;20036;-86
2023/04/12 05:55:22;;;;;;;31.38;16.98;;;;;;;11.47;61.48;98365.00;5035056;28;20021;-85
2023/04/12 05:57:47;;;;;;;27.17;16.30;;;;;;;11.52;61.77;98356.31;5049178;28;20029;-86
2023/04/12 06:00:17;;;;;;;23.88;16.23;;;;;;;11.65;61.35;98373.78;5026511;28;20036;-86
2023/04/12 06:02:44;;;;;;;20.33;14.52;;;;;;;11.61;61.81;98342.06;5032912;28;20087;-85
2023/04/12 06:05:10;;;;;;;23.23;15.43;;;;;;;11.79;60.81;98370.44;5045612;28;20092;-85
2023/04/12 06:07:38;;;;;;;34.63;18.13;;;;;;;11.85;60.93;98363.38;5035025;28;20043;-85
2023/04/12 06:10:04;;;;;;;27.27;17.30;;;;;;;12.07;60.21;98363.81;5032904;28;20033;-85
2023/04/12 06:12:30;;;;;;;25.65;15.20;;;;;;;12.22;59.47;98353.63;5029598;28;20107;-86
2023/04/12 06:14:55;;;;;;;21.77;14.68;;;;;;;12.27;59.09;98355.31;5034074;28;20116;-85
2023/04/12 06:17:21;;;;;;;29.05;13.70;;;;;;;12.38;59.19;98367.53;5030341;28;20051;-84
2023/04/12 06:19:46;;;;;;;19.08;14.38;;;;;;;12.34;58.41;98352.66;5035461;28;20059;-83
2023/04/12 06:22:12;;;;;;;21.83;12.77;;;;;;;12.47;57.63;98362.50;5034400;28;20029;-84
2023/04/12 06:24:37;;;;;;;26.50;13.75;;;;;;;12.32;57.54;98324.19;5035264;28;20561;-85
2023/04/12 06:27:03;;;;;;;19.17;12.52;;;;;;;12.69;57.69;98348.81;5053414;28;20033;-88
2023/04/12 06:29:28;;;;;;;19.55;13.50;;;;;;;12.67;55.02;98347.56;5031651;28;20029;-88
2023/04/12 06:31:54;;;;;;;24.15;14.82;;;;;;;12.88;55.37;98356.31;5053525;28;20095;-89
2023/04/12 06:34:19;;;;;;;20.42;13.48;;;;;;;12.98;54.63;98362.47;5033644;28;20131;-88
2023/04/12 06:36:46;;;;;;;20.95;11.80;;;;;;;12.78;53.15;98348.53;5030697;28;20039;-89
2023/04/12 06:39:12;;;;;;;20.08;12.00;;;;;;;12.86;51.92;98364.31;5031371;28;20031;-88
2023/04/12 06:41:38;;;;;;;14.95;10.25;;;;;;;12.89;52.33;98362.72;5048598;28;20045;-87
2023/04/12 06:44:04;;;;;;;16.52;10.18;;;;;;;12.97;52.34;98372.06;5030842;28;20087;-88
2023/04/12 06:46:30;;;;;;;14.38;8.68;;;;;;;12.98;49.99;98376.50;5039204;28;20028;-88
2023/04/12 06:48:55;;;;;;;14.25;9.68;;;;;;;13.02;49.56;98371.75;5050588;28;20041;-86
2023/04/12 06:51:21;;;;;;;13.70;6.82;;;;;;;13.01;45.75;98368.13;5055684;28;20041;-87
2023/04/12 06:53:46;;;;;;;11.65;7.00;;;;;;;12.97;46.18;98372.88;5054811;28;20059;-84
2023/04/12 06:56:12;;;;;;;7.75;5.30;;;;;;;12.99;46.82;98378.91;5043389;28;20056;-88
2023/04/12 06:58:37;;;;;;;11.00;6.32;;;;;;;12.95;45.88;98375.25;5044190;28;20036;-87
2023/04/12 07:01:13;;;;;;;14.38;5.28;;;;;;;12.97;45.73;98384.09;5053574;28;20519;-87
2023/04/12 07:03:39;;;;;;;18.70;3.28;;;;;;;12.99;44.07;98384.53;5033034;28;20036;-86
2023/04/12 07:06:07;;;;;;;17.88;3.17;;;;;;;12.96;43.49;98390.91;5034666;28;20025;-88
2023/04/12 07:08:34;;;;;;;5.72;2.97;;;;;;;12.97;43.64;98388.91;5037172;28;20515;-88
2023/04/12 07:11:00;;;;;;;11.90;3.85;;;;;;;12.94;43.53;98381.25;5035026;28;20032;-88
2023/04/12 07:13:26;;;;;;;5.97;3.15;;;;;;;12.90;43.73;98392.41;5036045;28;20116;-88
2023/04/12 07:15:53;;;;;;;5.03;2.40;;;;;;;12.72;44.41;98353.66;5055796;28;20491;-88
2023/04/12 07:18:19;;;;;;;4.03;2.58;;;;;;;12.83;44.10;98358.63;5034470;28;20028;-87
2023/04/12 07:20:55;;;;;;;3.97;3.08;;;;;;;13.14;44.80;98373.50;5038615;28;20106;-88
2023/04/12 07:23:20;;;;;;;7.90;4.60;;;;;;;13.60;44.69;98375.38;5034462;28;20669;-87
2023/04/12 07:25:46;;;;;;;9.45;5.40;;;;;;;13.62;43.82;98379.41;5028473;28;20035;-87
2023/04/12 07:28:11;;;;;;;8.00;5.75;;;;;;;13.76;43.98;98372.34;5046648;28;20029;-88
2023/04/12 07:30:40;;;;;;;6.80;5.70;;;;;;;14.02;44.06;98373.44;5025329;28;20028;-87
2023/04/12 07:33:06;;;;;;;12.30;7.28;;;;;;;13.94;45.21;98368.94;5024435;28;20041;-87
2023/04/12 07:35:34;;;;;;;9.02;6.90;;;;;;;14.09;44.10;98372.72;5021678;28;20108;-88
2023/04/12 07:38:00;;;;;;;8.43;6.72;;;;;;;14.11;43.64;98362.69;5026064;28;20467;-86
2023/04/12 07:40:26;;;;;;;12.55;7.13;;;;;;;14.23;43.35;98363.59;5024302;28;20014;-87
2023/04/12 07:42:51;;;;;;;9.38;5.53;;;;;;;14.33;43.89;98368.50;5022483;28;20510;-86
2023/04/12 07:45:18;;;;;;;7.82;5.55;;;;;;;14.57;42.26;98341.00;5028158;28;20036;-88
2023/04/12 07:47:44;;;;;;;17.52;5.68;;;;;;;14.57;42.71;98352.25;5030552;28;20024;-87
2023/04/12 07:50:10;;;;;;;15.25;4.72;;;;;;;14.39;41.72;98352.91;5030809;28;20423;-90
2023/04/12 07:52:35;;;;;;;4.50;3.83;;;;;;;14.03;42.65;98352.56;5031605;28;20021;-89
2023/04/12 07:55:01;;;;;;;20.70;4.82;;;;;;;13.95;42.24;98328.38;5031154;28;20116;-87
2023/04/12 07:57:26;;;;;;;11.43;4.85;;;;;;;13.95;42.10;98348.06;5031495;28;20485;-89
2023/04/12 07:59:52;;;;;;;8.43;4.40;;;;;;;13.90;42.51;98352.84;5031910;28;20029;-87
2023/04/12 08:02:23;;;;;;;5.35;4.35;;;;;;;14.11;41.79;98340.19;5011198;28;20056;-86
2023/04/12 08:04:58;;;;;;;14.38;4.97;;;;;;;14.21;41.19;98352.75;5010950;28;20456;-85
2023/04/12 08:07:23;;;;;;;13.88;4.43;;;;;;;14.48;41.10;98332.06;5011379;28;20033;-84
2023/04/12 08:09:49;;;;;;;10.48;3.75;;;;;;;14.54;40.73;98302.38;5011187;28;20022;-84
2023/04/12 08:12:15;;;;;;;8.50;4.80;;;;;;;14.53;40.18;98345.78;5017255;28;20018;-83
2023/04/12 08:14:40;;;;;;;5.15;4.32;;;;;;;14.42;40.52;98331.63;5030104;28;20053;-85
2023/04/12 08:17:06;;;;;;;11.18;4.40;;;;;;;14.54;40.69;98324.91;5029388;28;20068;-86
2023/04/12 08:19:32;;;;;;;6.20;4.40;;;;;;;14.74;41.44;98340.38;5027099;28;20099;-86
2023/04/12 08:21:57;;;;;;;4.85;4.07;;;;;;;14.32;40.90;98339.59;5034149;28;20538;-84
2023/04/12 08:24:23;;;;;;;6.45;4.00;;;;;;;14.02;41.74;98331.28;5035640;28;20028;-85
2023/04/12 08:26:50;;;;;;;7.32;4.57;;;;;;;14.71;42.33;98338.28;5034155;28;20029;-84
2023/04/12 08:29:15;;;;;;;12.18;5.53;;;;;;;14.91;42.91;98314.75;5034333;28;20025;-87
2023/04/12 08:31:41;;;;;;;5.43;4.65;;;;;;;14.56;41.94;98303.63;5034501;28;20116;-88
2023/04/12 08:34:06;;;;;;;15.98;5.15;;;;;;;14.66;41.58;98318.97;5037433;28;20045;-85
2023/04/12 08:36:31;;;;;;;6.60;3.90;;;;;;;14.75;40.53;98315.81;5055044;28;20032;-86
2023/04/12 08:39:00;;;;;;;10.20;3.88;;;;;;;14.85;42.01;98312.28;5042356;28;20044;-87
2023/04/12 08:41:29;;;;;;;11.20;4.82;;;;;;;14.94;42.82;98325.22;5038669;28;20140;-87
2023/04/12 08:43:54;;;;;;;8.93;4.10;;;;;;;14.40;43.36;98314.31;5038095;28;20557;-87
2023/04/12 08:46:20;;;;;;;10.35;4.10;;;;;;;14.70;43.46;98319.78;5037763;28;20499;-83
2023/04/12 08:48:53;;;;;;;10.48;3.97;;;;;;;14.58;42.78;98323.72;5038171;28;20025;-89
2023/04/12 08:51:20;;;;;;;6.80;3.95;;;;;;;14.38;43.04;98325.16;5037505;28;20087;-86
2023/04/12 08:53:46;;;;;;;10.80;4.68;;;;;;;14.26;44.21;98329.09;5037367;28;20027;-86
2023/04/12 08:56:13;;;;;;;6.82;4.25;;;;;;;14.08;43.16;98312.84;5037217;28;20102;-87
2023/04/12 08:58:40;;;;;;;6.10;4.32;;;;;;;14.10;44.37;98327.31;5036750;28;20117;-85
2023/04/12 09:01:13;;;;;;;10.18;4.57;;;;;;;13.89;45.00;98317.50;5057892;28;20024;-88
2023/04/12 09:03:39;;;;;;;5.20;4.22;;;;;;;13.64;44.53;98305.97;5039650;28;20115;-86
2023/04/12 09:06:05;;;;;;;8.00;3.80;;;;;;;13.83;44.38;98307.78;5037235;28;20037;-85
2023/04/12 09:08:31;;;;;;;8.57;4.53;;;;;;;13.78;44.20;98291.28;5037025;28;20110;-86
2023/04/12 09:10:57;;;;;;;7.03;4.20;;;;;;;13.98;44.78;98310.72;5036657;28;20029;-86
2023/04/12 09:13:36;;;;;;;7.05;3.60;;;;;;;14.01;44.03;98299.53;5040556;28;20067;-87
2023/04/12 09:16:01;;;;;;;6.47;3.70;;;;;;;14.21;42.66;98301.31;5037273;28;20077;-84
2023/04/12 09:18:27;;;;;;;8.85;4.72;;;;;;;14.31;43.18;98275.28;5040284;28;20037;-85
2023/04/12 09:21:13;;;;;;;5.90;4.88;;;;;;;14.22;41.34;98260.75;5032971;28;20036;-86
2023/04/12 09:23:38;;;;;;;6.78;4.40;;;;;;;14.36;41.85;98272.13;5033725;28;20040;-85
2023/04/12 09:26:05;;;;;;;6.60;4.65;;;;;;;14.32;41.68;98276.91;5035614;28;20036;-85
2023/04/12 09:28:31;;;;;;;6.35;3.63;;;;;;;14.28;41.16;98270.44;5035747;28;20025;-85
2023/04/12 09:30:58;;;;;;;8.68;4.60;;;;;;;14.52;40.38;98252.13;5034693;28;20167;-85
2023/04/12 09:33:44;;;;;;;13.18;4.40;;;;;;;14.88;39.38;98262.84;5031206;28;20500;-85
2023/04/12 09:36:15;;;;;;;11.27;4.53;;;;;;;15.24;38.60;98245.28;5035556;28;20033;-84
2023/04/12 09:38:58;;;;;;;6.85;4.10;;;;;;;15.72;37.66;98249.88;5043856;28;20036;-85
2023/04/12 09:41:29;;;;;;;9.68;3.80;;;;;;;15.39;37.18;98241.34;5035747;28;20567;-85
2023/04/12 09:43:57;;;;;;;7.00;4.28;;;;;;;15.72;36.74;98228.09;5035110;28;20059;-86
2023/04/12 09:46:28;;;;;;;4.80;4.30;;;;;;;16.22;36.86;98239.88;5034559;28;20059;-84
2023/04/12 09:48:57;;;;;;;7.78;4.07;;;;;;;16.42;36.21;98215.66;5049497;28;20044;-84
2023/04/12 09:51:32;;;;;;;9.52;3.55;;;;;;;16.66;35.37;98230.16;5035897;28;20178;-85
2023/04/12 09:54:05;;;;;;;10.30;3.92;;;;;;;16.50;34.69;98241.03;5031009;28;20055;-87
2023/04/12 09:56:33;;;;;;;11.02;4.78;;;;;;;16.48;34.95;98232.19;5052025;28;20079;-85
2023/04/12 09:59:06;;;;;;;8.50;4.65;;;;;;;16.32;33.88;98226.94;5036620;28;20029;-84
2023/04/12 10:01:47;;;;;;;8.80;4.13;;;;;;;16.44;33.04;98220.09;5047520;28;20033;-85
2023/04/12 10:04:13;;;;;;;3.85;2.85;;;;;;;16.64;32.75;98220.47;5034504;28;20415;-84
2023/04/12 10:06:40;;;;;;;12.15;3.72;;;;;;;16.70;31.81;98232.94;5030206;28;20029;-86
2023/04/12 10:09:07;;;;;;;4.10;3.42;;;;;;;16.79;31.75;98235.34;5034999;28;20071;-85
2023/04/12 10:11:33;;;;;;;5.18;3.60;;;;;;;16.59;32.40;98216.03;5034888;28;20037;-87
2023/04/12 10:14:01;;;;;;;5.63;3.22;;;;;;;16.48;33.05;98216.06;5033801;28;20021;-84
2023/04/12 10:16:27;;;;;;;9.50;3.60;;;;;;;16.52;31.97;98218.84;5031420;28;20341;-85
2023/04/12 10:18:54;;;;;;;9.32;4.38;;;;;;;16.46;33.87;98218.47;5034610;28;20547;-85
2023/04/12 10:21:21;;;;;;;7.97;3.97;;;;;;;16.42;33.46;98203.56;5051704;28;20401;-85
2023/04/12 10:23:48;;;;;;;9.85;4.57;;;;;;;16.74;34.51;98218.81;5048980;28;21294;-85
2023/04/12 10:26:15;;;;;;;6.40;3.72;;;;;;;16.72;32.17;98210.78;5029818;28;20027;-86
2023/04/12 10:28:46;;;;;;;9.18;4.78;;;;;;;16.78;33.13;98197.84;5030270;28;20586;-86
2023/04/12 10:31:31;;;;;;;3.22;2.92;;;;;;;17.24;32.26;98207.34;5047716;28;20036;-88
2023/04/12 10:33:56;;;;;;;5.78;3.10;;;;;;;17.04;31.84;98186.47;5049679;28;20035;-88
2023/04/12 10:36:52;;;;;;;5.97;3.53;;;;;;;17.29;31.86;98203.28;5035036;28;20116;-88
2023/04/12 10:39:17;;;;;;;8.68;3.58;;;;;;;17.24;31.73;98189.59;5035279;28;20028;-87
2023/04/12 10:42:23;;;;;;;20.98;4.38;;;;;;;16.88;31.60;98210.28;5034124;28;20496;-86
2023/04/12 10:44:51;;;;;;;2.88;2.22;;;;;;;16.63;30.54;98214.00;5050135;28;20104;-88
2023/04/12 10:47:48;;;;;;;3.55;2.15;;;;;;;16.27;30.26;98199.94;5028110;28;20033;-89
2023/04/12 10:50:30;;;;;;;5.50;2.10;;;;;;;15.99;30.83;98222.16;5031444;28;20029;-88
2023/04/12 10:53:11;;;;;;;7.70;2.22;;;;;;;15.83;31.02;98210.41;5051697;28;20481;-87
2023/04/12 10:55:41;;;;;;;11.40;2.17;;;;;;;15.44;29.91;98203.50;5049631;28;20439;-87
2023/04/12 10:58:07;;;;;;;19.83;3.75;;;;;;;15.23;29.98;98223.97;5037462;28;20161;-88
2023/04/12 11:01:08;;;;;;;2.42;1.50;;;;;;;15.29;29.98;98230.84;5039081;28;20063;-90
2023/04/12 11:03:35;;;;;;;3.00;1.98;;;;;;;15.35;31.10;98217.16;4990072;28;20036;-90
2023/04/12 11:06:04;;;;;;;2.67;2.30;;;;;;;15.73;30.23;98214.84;5029047;28;20074;-88
2023/04/12 11:08:38;;;;;;;3.40;1.95;;;;;;;16.05;30.03;98218.91;5028420;28;20401;-89
2023/04/12 11:11:17;;;;;;;1.75;1.58;;;;;;;16.11;29.96;98226.56;5036388;28;20028;-91
2023/04/12 11:13:42;;;;;;;1.67;1.58;;;;;;;16.23;29.58;98233.81;5027854;28;20033;-88
2023/04/12 11:16:11;;;;;;;2.03;1.58;;;;;;;16.33;28.73;98220.91;5023574;28;20024;-87
2023/04/12 11:18:38;;;;;;;2.10;1.90;;;;;;;15.93;30.12;98220.13;5043354;28;20530;-90
2023/04/12 11:21:04;;;;;;;4.00;2.05;;;;;;;15.81;30.82;98222.09;5025996;28;20104;-89
2023/04/12 11:23:31;;;;;;;3.20;2.00;;;;;;;16.16;31.44;98216.06;5018636;28;20052;-91
2023/04/12 11:25:57;;;;;;;3.67;2.55;;;;;;;16.17;31.91;98232.59;5018288;28;20045;-90
2023/04/12 11:28:24;;;;;;;5.95;3.03;;;;;;;16.56;31.91;98216.84;5030918;28;20025;-91
2023/04/12 11:30:55;;;;;;;5.30;2.60;;;;;;;16.82;31.78;98231.72;5034249;28;20052;-91
2023/04/12 11:33:38;;;;;;;8.05;3.65;;;;;;;16.46;36.04;98223.31;5017972;28;20571;-92